Time;durP1;ratioP1;P1;durP2;ratioP2;P2;SDS_P1;SDS_P2;PMS_P1;PMS_P2;Temp;Humidity;BMP_temperature;BMP_pressure;BME280_temperature;BME280_humidity;BME280_pressure;Samples;Min_cycle;Max_cycle;Signal;HPM_P1;HPM_P2
2023/07/02 00:02:24;;;;;;;4.35;3.52;;;;;;;16.39;72.98;98129.84;1800802;78;20940;-61
2023/07/02 00:04:51;;;;;;;5.70;4.08;;;;;;;16.39;73.02;98119.31;1827414;77;21612;-62
2023/07/02 00:07:17;;;;;;;4.70;3.65;;;;;;;16.39;73.32;98125.90;1827792;77;20922;-65
2023/07/02 00:09:43;;;;;;;5.40;4.12;;;;;;;16.39;73.29;98124.58;1802511;78;21016;-60
2023/07/02 00:12:10;;;;;;;6.28;4.22;;;;;;;16.38;73.32;98128.17;1803859;78;21586;-62
2023/07/02 00:14:37;;;;;;;5.53;4.10;;;;;;;16.40;73.48;98127.05;1835094;76;21061;-61
2023/07/02 00:17:03;;;;;;;4.40;3.85;;;;;;;16.45;73.39;98122.66;1840812;76;20994;-61
2023/07/02 00:19:30;;;;;;;4.97;3.85;;;;;;;16.47;73.40;98129.94;1842068;76;21027;-61
2023/07/02 00:21:58;;;;;;;6.58;4.20;;;;;;;16.49;73.44;98125.33;1841576;76;21046;-61
2023/07/02 00:24:24;;;;;;;5.03;4.37;;;;;;;16.46;73.59;98118.55;1840633;76;21025;-61
2023/07/02 00:26:50;;;;;;;8.58;4.25;;;;;;;16.48;73.64;98126.31;1840212;76;20973;-62
2023/07/02 00:29:17;;;;;;;4.30;3.55;;;;;;;16.46;73.77;98120.36;1838077;76;20926;-60
2023/07/02 00:31:44;;;;;;;4.45;3.37;;;;;;;16.47;73.83;98127.30;1837780;76;20902;-61
2023/07/02 00:34:10;;;;;;;5.27;3.73;;;;;;;16.50;73.85;98115.15;1798340;78;21053;-61
2023/07/02 00:36:37;;;;;;;4.80;3.58;;;;;;;16.52;73.93;98120.61;1839591;76;20938;-62
2023/07/02 00:39:03;;;;;;;4.80;4.30;;;;;;;16.52;73.88;98120.61;1834353;76;21016;-62
2023/07/02 00:41:30;;;;;;;6.03;3.90;;;;;;;16.53;73.99;98122.75;1835742;76;20961;-61
2023/07/02 00:43:57;;;;;;;4.22;3.83;;;;;;;16.53;74.07;98117.48;1838482;76;21271;-62
2023/07/02 00:46:25;;;;;;;5.35;3.87;;;;;;;16.55;74.12;98114.19;1839459;76;21015;-61
2023/07/02 00:48:55;;;;;;;7.85;4.33;;;;;;;16.57;74.20;98103.02;1840350;76;21056;-62
2023/07/02 00:51:24;;;;;;;7.80;4.67;;;;;;;16.55;74.30;98102.33;1835073;76;20989;-61
2023/07/02 00:53:53;;;;;;;6.15;4.33;;;;;;;16.52;74.27;98100.00;1838583;76;20931;-61
2023/07/02 00:56:19;;;;;;;4.35;3.92;;;;;;;16.53;74.38;98099.04;1803499;78;20925;-61
2023/07/02 00:58:50;;;;;;;5.78;4.22;;;;;;;16.52;74.52;98092.09;1843661;76;21021;-61
2023/07/02 01:01:21;;;;;;;7.40;4.20;;;;;;;16.49;74.61;98088.45;1837297;76;21044;-61
2023/07/02 01:03:59;;;;;;;8.55;4.35;;;;;;;16.46;74.58;98082.16;1836053;76;21534;-61
2023/07/02 01:06:31;;;;;;;7.33;4.47;;;;;;;16.43;74.74;98087.73;1835769;76;20993;-61
2023/07/02 01:09:00;;;;;;;4.47;3.92;;;;;;;16.44;75.11;98079.70;1840213;76;21424;-61
2023/07/02 01:11:40;;;;;;;4.85;4.30;;;;;;;16.42;75.00;98077.69;1800525;78;21437;-61
2023/07/02 01:14:10;;;;;;;5.12;4.00;;;;;;;16.42;75.09;98078.19;1798327;78;21473;-61
2023/07/02 01:16:37;;;;;;;6.00;4.10;;;;;;;16.41;75.29;98076.51;1767748;79;21004;-61
2023/07/02 01:19:07;;;;;;;5.45;3.98;;;;;;;16.32;75.45;98068.52;1784958;79;21548;-62
2023/07/02 01:21:33;;;;;;;4.25;3.75;;;;;;;16.28;75.52;98071.63;1777922;79;21088;-60
2023/07/02 01:24:01;;;;;;;7.50;4.50;;;;;;;16.24;75.83;98071.06;1784010;79;21479;-61
2023/07/02 01:26:29;;;;;;;;;;;;;;;16.21;76.24;98070.05;1799422;78;20968;-61
2023/07/02 01:28:56;;;;;;;6.00;4.47;;;;;;;16.20;76.40;98071.53;1762081;79;20409;-61
2023/07/02 01:31:24;;;;;;;5.95;4.28;;;;;;;16.19;76.02;98068.54;1763347;79;21014;-61
2023/07/02 01:33:52;;;;;;;5.22;3.50;;;;;;;16.17;76.49;98059.48;1793646;78;21418;-61
2023/07/02 01:36:19;;;;;;;4.05;3.65;;;;;;;16.15;76.57;98064.56;1801783;78;20998;-61
2023/07/02 01:38:46;;;;;;;4.45;3.87;;;;;;;16.09;76.65;98060.72;1783869;79;20980;-61
2023/07/02 01:41:12;;;;;;;5.20;4.00;;;;;;;16.09;76.88;98060.72;1798339;78;21016;-60
2023/07/02 01:43:39;;;;;;;4.37;3.55;;;;;;;16.07;77.03;98054.77;1796364;78;21088;-61
2023/07/02 01:46:05;;;;;;;4.62;4.15;;;;;;;16.03;77.23;98056.05;1797719;78;20922;-60
2023/07/02 01:48:31;;;;;;;4.53;3.43;;;;;;;15.99;77.46;98048.09;1797015;78;20993;-60
2023/07/02 01:50:58;;;;;;;4.83;3.80;;;;;;;15.92;77.59;98051.81;1798858;78;20989;-61
2023/07/02 01:53:24;;;;;;;5.53;3.90;;;;;;;15.86;78.20;98050.59;1799492;78;21637;-60
2023/07/02 01:55:50;;;;;;;4.15;3.75;;;;;;;15.80;78.01;98047.23;1798326;78;20963;-62
2023/07/02 01:58:17;;;;;;;6.03;4.20;;;;;;;15.76;78.28;98047.66;1798909;78;20948;-61
2023/07/02 02:00:43;;;;;;;4.55;3.85;;;;;;;15.73;78.52;98047.47;1835468;76;21033;-61
2023/07/02 02:03:09;;;;;;;3.98;3.42;;;;;;;15.69;78.80;98051.38;1840543;76;20935;-61
2023/07/02 02:05:36;;;;;;;5.05;4.17;;;;;;;15.68;78.88;98047.06;1833105;76;21017;-63
2023/07/02 02:08:03;;;;;;;4.33;3.90;;;;;;;15.68;79.45;98035.23;1835252;76;20973;-61
2023/07/02 02:10:30;;;;;;;4.12;3.70;;;;;;;15.64;79.43;98039.11;1835525;76;20938;-61
2023/07/02 02:12:57;;;;;;;4.07;3.60;;;;;;;15.60;79.52;98036.41;1836858;76;20997;-62
2023/07/02 02:15:23;;;;;;;3.87;3.40;;;;;;;15.60;80.03;98033.78;1839380;76;21282;-61
2023/07/02 02:17:49;;;;;;;7.12;3.17;;;;;;;15.60;80.12;98034.63;1800085;78;21421;-62
2023/07/02 02:20:16;;;;;;;4.30;3.60;;;;;;;15.57;80.06;98030.12;1799351;78;20949;-62
2023/07/02 02:22:42;;;;;;;4.60;3.40;;;;;;;15.59;80.44;98032.13;1832918;76;21004;-61
2023/07/02 02:25:09;;;;;;;4.73;3.40;;;;;;;15.59;80.50;98029.50;1836678;76;21056;-62
2023/07/02 02:27:35;;;;;;;3.95;2.90;;;;;;;15.58;80.83;98035.75;1839961;77;21518;-61
2023/07/02 02:30:02;;;;;;;4.17;3.37;;;;;;;15.53;80.97;98035.34;1845745;76;20869;-60
2023/07/02 02:32:28;;;;;;;3.40;3.10;;;;;;;15.48;81.51;98036.27;1842433;77;20990;-60
2023/07/02 02:34:55;;;;;;;3.40;2.90;;;;;;;15.48;81.58;98027.06;1840078;77;21016;-62
2023/07/02 02:37:23;;;;;;;5.47;3.08;;;;;;;15.47;81.85;98022.78;1846258;76;21556;-61
2023/07/02 02:39:50;;;;;;;4.05;3.37;;;;;;;15.44;82.03;98028.67;1843227;76;21424;-60
2023/07/02 02:42:17;;;;;;;3.15;2.85;;;;;;;15.45;82.49;98026.36;1799210;78;21001;-61
2023/07/02 02:44:43;;;;;;;3.17;2.55;;;;;;;15.42;82.43;98026.66;1799205;78;20973;-61
2023/07/02 02:47:10;;;;;;;3.27;2.90;;;;;;;15.41;82.93;98023.70;1799997;78;20929;-62
2023/07/02 02:49:39;;;;;;;2.83;2.57;;;;;;;15.43;83.06;98024.84;1798332;78;21029;-61
2023/07/02 02:52:06;;;;;;;3.77;2.65;;;;;;;15.36;83.44;98024.61;1767963;79;21559;-61
2023/07/02 02:54:32;;;;;;;4.58;2.42;;;;;;;15.34;83.70;98017.34;1802571;78;20977;-62
2023/07/02 02:56:59;;;;;;;3.47;2.37;;;;;;;15.34;84.03;98021.29;1840946;76;21397;-61
2023/07/02 02:59:25;;;;;;;3.47;2.50;;;;;;;15.37;84.37;98021.00;1839358;76;21036;-61
2023/07/02 03:01:51;;;;;;;3.12;2.90;;;;;;;15.39;84.23;98011.17;1837116;76;21041;-61
2023/07/02 03:04:18;;;;;;;2.33;2.10;;;;;;;15.39;84.73;98009.86;1836796;76;21600;-61
2023/07/02 03:06:45;;;;;;;2.50;2.30;;;;;;;15.40;84.89;98009.36;1832275;76;20981;-62
2023/07/02 03:09:11;;;;;;;;;;;;;;;15.43;84.97;98004.66;1834990;76;21020;-61
2023/07/02 03:11:38;;;;;;;2.22;1.98;;;;;;;15.49;85.45;98003.26;1829695;77;20223;-61
2023/07/02 03:14:04;;;;;;;2.12;1.92;;;;;;;15.50;85.52;98004.08;1827608;77;21009;-60
2023/07/02 03:16:30;;;;;;;2.22;1.72;;;;;;;15.49;85.66;98006.34;1767795;80;20987;-62
2023/07/02 03:18:58;;;;;;;1.90;1.70;;;;;;;15.45;86.07;98000.06;1793854;79;20954;-61
2023/07/02 03:21:25;;;;;;;1.98;1.77;;;;;;;15.43;86.19;98002.03;1826224;77;21504;-60
2023/07/02 03:23:51;;;;;;;1.60;1.50;;;;;;;15.48;86.28;98003.39;1826157;77;21077;-61
2023/07/02 03:26:19;;;;;;;3.25;1.70;;;;;;;15.56;86.29;98001.69;1822666;77;21005;-61
2023/07/02 03:28:46;;;;;;;2.42;2.22;;;;;;;15.60;86.36;98002.20;1824727;77;20953;-61
2023/07/02 03:31:12;;;;;;;2.35;1.80;;;;;;;15.62;86.54;97992.38;1827520;77;20947;-62
2023/07/02 03:33:38;;;;;;;1.72;1.62;;;;;;;15.60;86.67;97995.17;1765817;80;21011;-62
2023/07/02 03:36:04;;;;;;;1.70;1.60;;;;;;;15.62;86.92;98000.27;1768761;80;21032;-61
2023/07/02 03:38:31;;;;;;;1.83;1.60;;;;;;;15.62;87.12;97992.38;1824926;77;21448;-61
2023/07/02 03:40:57;;;;;;;1.40;1.30;;;;;;;15.64;87.29;97998.33;1827417;77;21539;-61
2023/07/02 03:43:25;;;;;;;3.27;1.37;;;;;;;15.67;87.24;97995.41;1776808;80;21010;-61
2023/07/02 03:45:52;;;;;;;1.50;1.40;;;;;;;15.69;87.51;97992.17;1765505;80;21008;-61
2023/07/02 03:48:19;;;;;;;2.15;1.75;;;;;;;15.70;87.33;97989.87;1766823;80;21007;-61
2023/07/02 03:50:45;;;;;;;1.50;1.40;;;;;;;15.73;87.66;97990.89;1763513;79;21035;-61
2023/07/02 03:53:12;;;;;;;1.57;1.30;;;;;;;15.76;87.92;97986.65;1764974;79;21042;-62
2023/07/02 03:55:40;;;;;;;1.80;1.52;;;;;;;15.80;87.96;97989.84;1793586;79;21060;-60
2023/07/02 03:58:06;;;;;;;2.35;1.65;;;;;;;15.80;88.12;97990.66;1829890;77;21027;-60
2023/07/02 04:00:32;;;;;;;3.05;0.95;;;;;;;15.82;88.32;97983.45;1825710;77;20991;-61
2023/07/02 04:02:59;;;;;;;1.82;1.30;;;;;;;15.83;88.42;97985.09;1826151;77;20915;-61
2023/07/02 04:05:25;;;;;;;1.20;1.10;;;;;;;15.92;88.53;97985.19;1829490;77;20979;-61
2023/07/02 04:07:51;;;;;;;1.25;1.17;;;;;;;16.01;89.07;97994.81;1825568;77;20955;-60
2023/07/02 04:10:18;;;;;;;1.52;1.20;;;;;;;16.05;88.82;97990.92;1827044;77;21605;-61
2023/07/02 04:12:44;;;;;;;1.90;1.22;;;;;;;16.11;89.04;97992.95;1823643;77;21533;-60
2023/07/02 04:15:11;;;;;;;1.15;1.07;;;;;;;16.19;88.99;97987.77;1829281;77;20989;-61
2023/07/02 04:17:37;;;;;;;1.57;1.47;;;;;;;16.24;89.04;97984.66;1829305;77;20930;-62
2023/07/02 04:20:06;;;;;;;2.23;1.90;;;;;;;16.23;89.55;97983.84;1830089;77;20941;-60
2023/07/02 04:22:33;;;;;;;2.00;1.40;;;;;;;16.10;89.60;97982.06;1826236;77;21477;-61
2023/07/02 04:25:00;;;;;;;1.80;1.42;;;;;;;16.04;89.32;97986.61;1825789;77;20998;-60
2023/07/02 04:27:26;;;;;;;2.00;1.45;;;;;;;16.04;89.86;97985.30;1828033;77;20962;-61
2023/07/02 04:29:55;;;;;;;1.50;1.40;;;;;;;16.06;90.18;97982.04;1827921;77;20977;-62
2023/07/02 04:32:22;;;;;;;3.92;1.40;;;;;;;16.05;90.10;97986.48;1827613;77;20906;-61
2023/07/02 04:34:49;;;;;;;3.67;1.42;;;;;;;16.00;90.29;97987.91;1827827;77;20976;-62
2023/07/02 04:37:18;;;;;;;2.77;1.27;;;;;;;15.98;90.52;97983.27;1798813;78;20963;-62
2023/07/02 04:39:46;;;;;;;1.77;1.12;;;;;;;15.97;90.66;97980.31;1797581;78;20935;-61
2023/07/02 04:42:13;;;;;;;1.35;1.10;;;;;;;15.96;91.08;97981.27;1796079;78;21073;-61
2023/07/02 04:44:43;;;;;;;1.02;0.82;;;;;;;15.94;91.24;97980.61;1798413;78;20981;-61
2023/07/02 04:47:07;;;;;;;1.20;1.10;;;;;;;16.00;91.46;97981.33;1795773;78;22033;-62
2023/07/02 04:49:35;;;;;;;1.15;1.05;;;;;;;16.01;91.51;97979.02;1802585;78;21088;-62
2023/07/02 04:52:02;;;;;;;1.15;0.95;;;;;;;16.04;91.51;97981.34;1796909;78;21010;-61
2023/07/02 04:54:28;;;;;;;0.90;0.80;;;;;;;16.06;91.43;97982.04;1800559;78;21731;-62
2023/07/02 04:56:55;;;;;;;0.87;0.80;;;;;;;16.05;91.49;97981.70;1799175;78;21489;-62
2023/07/02 04:59:21;;;;;;;1.47;0.98;;;;;;;16.02;91.53;97980.66;1797543;78;20982;-62
2023/07/02 05:01:48;;;;;;;0.90;0.90;;;;;;;16.06;91.65;97987.30;1772899;79;20987;-62
2023/07/02 05:04:14;;;;;;;1.22;0.90;;;;;;;16.11;91.94;97985.05;1829081;77;21039;-61
2023/07/02 05:06:40;;;;;;;1.00;0.80;;;;;;;16.14;92.05;97984.75;1827016;77;21536;-61
2023/07/02 05:09:06;;;;;;;2.85;1.00;;;;;;;16.10;92.19;97984.23;1828556;77;20982;-61
2023/07/02 05:11:33;;;;;;;1.07;0.70;;;;;;;16.10;92.30;97980.75;1807750;77;21064;-61
2023/07/02 05:14:00;;;;;;;1.45;0.98;;;;;;;16.12;92.71;97981.44;1798996;78;21024;-61
2023/07/02 05:16:26;;;;;;;1.00;0.90;;;;;;;16.09;92.79;97987.00;1803975;78;20945;-62
2023/07/02 05:18:52;;;;;;;0.85;0.82;;;;;;;16.09;93.14;97990.95;1802914;78;20987;-61
2023/07/02 05:21:22;;;;;;;1.27;0.82;;;;;;;16.13;93.32;97988.34;1805703;78;21432;-61
2023/07/02 05:23:49;;;;;;;0.75;0.75;;;;;;;16.17;93.28;97976.55;1804942;78;21056;-61
2023/07/02 05:26:15;;;;;;;0.62;0.62;;;;;;;16.20;93.89;97978.88;1798085;78;21027;-61
2023/07/02 05:28:41;;;;;;;0.90;0.70;;;;;;;16.23;93.78;97980.38;1798173;79;20933;-61
2023/07/02 05:31:08;;;;;;;1.00;0.80;;;;;;;16.28;93.87;97980.27;1795341;79;21009;-61
2023/07/02 05:33:34;;;;;;;0.63;0.63;;;;;;;16.34;94.23;97983.61;1797403;78;21531;-61
2023/07/02 05:36:01;;;;;;;0.75;0.75;;;;;;;16.34;94.09;97982.30;1797393;79;21532;-62
2023/07/02 05:38:28;;;;;;;1.47;0.68;;;;;;;16.33;94.15;97979.33;1788957;79;21520;-62
2023/07/02 05:40:54;;;;;;;0.78;0.65;;;;;;;16.42;94.17;97980.23;1799844;79;21033;-61
2023/07/02 05:43:20;;;;;;;1.53;0.83;;;;;;;16.46;93.97;97988.64;1793898;78;21006;-62
2023/07/02 05:45:50;;;;;;;0.90;0.90;;;;;;;16.49;93.82;97983.89;1792906;79;20945;-60
2023/07/02 05:48:21;;;;;;;1.10;1.00;;;;;;;16.48;93.91;97976.16;1799452;79;21424;-61
2023/07/02 05:50:45;;;;;;;2.55;1.17;;;;;;;16.45;94.08;97972.52;1799301;79;21000;-62
2023/07/02 05:53:12;;;;;;;0.73;0.70;;;;;;;16.45;94.13;97975.15;1797106;79;20942;-61
2023/07/02 05:55:38;;;;;;;1.95;1.07;;;;;;;16.39;94.02;97979.71;1789572;79;20981;-61
2023/07/02 05:58:04;;;;;;;2.33;0.90;;;;;;;16.34;94.16;97973.08;1801188;79;20989;-61
2023/07/02 06:00:31;;;;;;;1.20;0.95;;;;;;;16.33;94.48;97983.28;1794742;78;21031;-62
2023/07/02 06:02:57;;;;;;;0.70;0.70;;;;;;;16.37;94.64;97980.34;1801752;78;20934;-61
2023/07/02 06:05:24;;;;;;;0.93;0.73;;;;;;;16.33;94.40;97981.97;1804940;78;21108;-62
2023/07/02 06:07:50;;;;;;;1.52;0.80;;;;;;;16.32;94.54;97982.11;1801858;78;20949;-61
2023/07/02 06:10:16;;;;;;;1.15;0.80;;;;;;;16.28;94.76;97984.22;1801630;78;21017;-61
2023/07/02 06:12:46;;;;;;;7.95;1.00;;;;;;;16.29;95.68;97976.65;1807631;78;21047;-62
2023/07/02 06:15:12;;;;;;;2.92;1.00;;;;;;;16.32;96.01;97975.03;1802098;78;20963;-61
2023/07/02 06:17:39;;;;;;;9.03;1.20;;;;;;;16.15;95.75;97975.05;1804626;78;20945;-62
2023/07/02 06:20:08;;;;;;;4.20;0.77;;;;;;;16.02;95.78;97975.40;1805439;78;20938;-60
2023/07/02 06:22:45;;;;;;;1.80;0.78;;;;;;;15.89;96.25;97987.13;1797930;78;20960;-61
2023/07/02 06:25:10;;;;;;;0.60;0.60;;;;;;;15.81;96.46;97996.25;1783778;79;20953;-62
2023/07/02 06:27:40;;;;;;;0.88;0.80;;;;;;;15.73;96.72;97997.47;1800546;79;20964;-61
2023/07/02 06:30:07;;;;;;;1.52;1.00;;;;;;;15.69;96.91;97996.13;1798033;79;21009;-61
2023/07/02 06:32:34;;;;;;;7.55;1.27;;;;;;;15.67;96.69;98005.92;1800893;79;21087;-61
2023/07/02 06:35:00;;;;;;;1.20;0.90;;;;;;;15.64;97.16;98011.48;1795303;79;20989;-61
2023/07/02 06:37:26;;;;;;;1.70;0.67;;;;;;;15.67;97.72;98013.82;1797572;79;20902;-61
2023/07/02 06:39:55;;;;;;;2.73;0.80;;;;;;;15.61;97.03;98013.09;1796084;79;21579;-61
2023/07/02 06:42:22;;;;;;;3.27;1.40;;;;;;;15.49;96.78;98023.44;1798236;79;21475;-61
2023/07/02 06:44:50;;;;;;;1.77;1.00;;;;;;;15.32;96.57;98025.89;1795426;79;20984;-61
2023/07/02 06:47:16;;;;;;;6.83;1.65;;;;;;;15.16;96.48;98028.28;1802878;79;21075;-62
2023/07/02 06:49:45;;;;;;;4.62;1.32;;;;;;;15.00;96.57;98032.31;1800437;79;21069;-61
2023/07/02 06:52:15;;;;;;;2.47;1.25;;;;;;;14.88;97.61;98026.89;1797392;79;21107;-61
2023/07/02 06:54:41;;;;;;;4.47;1.57;;;;;;;14.89;97.96;98027.22;1794754;78;20928;-62
2023/07/02 06:57:12;;;;;;;2.37;1.10;;;;;;;14.90;97.58;98015.77;1797285;78;20969;-61
2023/07/02 06:59:40;;;;;;;5.78;1.57;;;;;;;14.83;97.52;98025.66;1798812;79;21067;-61
2023/07/02 07:02:10;;;;;;;3.65;1.40;;;;;;;14.76;97.59;98029.34;1796929;79;21017;-61
2023/07/02 07:04:37;;;;;;;4.97;1.52;;;;;;;14.76;97.64;98029.34;1792832;79;20992;-62
2023/07/02 07:07:04;;;;;;;3.67;1.60;;;;;;;14.71;97.64;98030.23;1794249;79;20989;-62
2023/07/02 07:09:30;;;;;;;3.15;1.20;;;;;;;14.68;97.44;98027.89;1788365;78;21060;-62
2023/07/02 07:11:57;;;;;;;5.62;1.50;;;;;;;14.72;97.85;98027.94;1826827;76;21065;-62
2023/07/02 07:14:23;;;;;;;3.50;1.80;;;;;;;14.80;98.09;98025.45;1833748;76;20969;-62
2023/07/02 07:16:50;;;;;;;3.12;1.60;;;;;;;14.85;97.94;98029.80;1836644;76;20937;-62
2023/07/02 07:19:17;;;;;;;3.45;1.12;;;;;;;14.89;97.89;98032.97;1832320;76;20954;-63
2023/07/02 07:21:43;;;;;;;8.40;1.10;;;;;;;14.90;97.56;98030.22;1769342;79;20997;-62
2023/07/02 07:24:10;;;;;;;6.47;1.25;;;;;;;14.87;97.24;98026.55;1791999;78;21095;-60
2023/07/02 07:26:37;;;;;;;3.37;1.50;;;;;;;14.84;96.82;98026.81;1794934;78;20946;-59
2023/07/02 07:29:04;;;;;;;3.10;1.20;;;;;;;14.81;96.36;98025.78;1797265;78;21072;-60
2023/07/02 07:31:30;;;;;;;3.30;1.25;;;;;;;14.75;96.07;98032.91;1772318;79;21004;-60
2023/07/02 07:34:09;;;;;;;2.72;1.22;;;;;;;14.63;95.53;98029.61;1753237;79;21019;-61
2023/07/02 07:36:30;;;;;;;2.40;1.12;;;;;;;14.62;96.10;98037.62;1746348;79;21041;-61
2023/07/02 07:38:57;;;;;;;4.10;1.55;;;;;;;14.65;96.40;98047.88;1795702;78;21021;-62
2023/07/02 07:41:24;;;;;;;6.20;1.50;;;;;;;14.63;96.27;98045.86;1795035;78;21588;-62
2023/07/02 07:43:51;;;;;;;3.77;1.30;;;;;;;14.69;96.82;98036.93;1772593;78;20993;-60
2023/07/02 07:46:23;;;;;;;2.77;1.50;;;;;;;14.81;97.11;98037.60;1801442;78;21577;-60
2023/07/02 07:48:59;;;;;;;5.35;1.47;;;;;;;14.87;96.54;98038.38;1803136;78;21017;-61
2023/07/02 07:51:27;;;;;;;4.95;1.47;;;;;;;14.97;96.92;98044.92;1768888;79;21049;-60
2023/07/02 07:53:57;;;;;;;2.22;1.12;;;;;;;15.09;96.84;98048.21;1801556;78;21053;-60
2023/07/02 07:56:23;;;;;;;3.80;1.25;;;;;;;15.21;96.67;98054.98;1769538;80;21094;-61
2023/07/02 07:58:50;;;;;;;3.80;1.57;;;;;;;15.31;96.73;98055.77;1801339;78;20983;-61
2023/07/02 08:01:16;;;;;;;3.65;1.30;;;;;;;15.35;96.72;98054.52;1772524;78;21017;-61
2023/07/02 08:03:43;;;;;;;7.00;1.60;;;;;;;15.44;96.85;98056.28;1801197;78;21494;-61
2023/07/02 08:06:09;;;;;;;4.28;1.60;;;;;;;15.57;96.93;98063.01;1800278;79;20996;-61
2023/07/02 08:08:36;;;;;;;;;;;;;;;15.62;96.62;98060.78;1782966;79;21001;-62
2023/07/02 08:11:02;;;;;;;2.52;1.20;;;;;;;15.67;96.76;98066.44;1780523;79;20099;-61
2023/07/02 08:13:32;;;;;;;2.65;1.27;;;;;;;15.74;96.64;98070.19;1776404;79;21029;-61
2023/07/02 08:15:59;;;;;;;1.90;1.15;;;;;;;15.81;96.59;98071.25;1774389;80;21088;-60
2023/07/02 08:18:25;;;;;;;4.62;1.82;;;;;;;15.93;96.81;98078.95;1804308;79;21517;-61
2023/07/02 08:20:51;;;;;;;4.33;1.50;;;;;;;16.00;96.83;98068.19;1790090;80;21279;-62
2023/07/02 08:23:27;;;;;;;4.47;1.75;;;;;;;16.31;98.15;98065.56;1799898;78;21021;-61
2023/07/02 08:25:49;;;;;;;4.78;1.55;;;;;;;16.61;97.81;98072.77;1772631;80;21539;-61
2023/07/02 08:28:15;;;;;;;3.27;1.45;;;;;;;17.32;100.00;98070.53;1800963;79;21015;-61
2023/07/02 08:30:42;;;;;;;8.28;1.82;;;;;;;19.15;100.00;98057.98;1794592;79;21088;-62
2023/07/02 08:33:11;;;;;;;3.52;1.32;;;;;;;20.11;98.38;98061.05;1796337;79;21065;-62
2023/07/02 08:36:40;;;;;;;;;;;;;;;;;;;;;
2023/07/02 08:39:02;;;;;;;3.62;1.62;;;;;;;21.29;93.43;98054.55;1752728;80;22065;-61
2023/07/02 08:40:53;;;;;;;5.08;1.80;;;;;;;21.44;94.00;98056.72;1773460;78;21047;-62
2023/07/02 08:43:21;;;;;;;4.58;1.67;;;;;;;21.60;92.69;98057.87;1802444;78;21077;-63
2023/07/02 08:45:50;;;;;;;4.65;2.15;;;;;;;21.75;92.78;98058.37;1800332;78;21128;-63
2023/07/02 08:48:22;;;;;;;1.65;1.20;;;;;;;21.72;93.00;98068.04;1787375;78;21627;-61
2023/07/02 08:50:49;;;;;;;3.27;1.60;;;;;;;22.13;92.32;98050.58;1801431;78;21048;-61
2023/07/02 08:53:29;;;;;;;;;;;;;;;;;;;;;
2023/07/02 08:55:56;;;;;;;9.70;2.08;;;;;;;24.69;94.60;98046.56;1787256;78;21115;-62
2023/07/02 08:58:47;;;;;;;;;;;;;;;;;;;;;
2023/07/02 09:01:33;;;;;;;;;;;;;;;;;;;;;
2023/07/02 09:03:57;;;;;;;4.37;1.47;;;;;;;26.80;85.24;98045.36;1494701;94;21648;-60
2023/07/02 09:06:30;;;;;;;;;;;;;;;;;;;;;
2023/07/02 09:08:50;;;;;;;5.55;1.85;;;;;;;24.43;81.74;98065.18;1520382;92;21178;-59
2023/07/02 09:11:19;;;;;;;5.92;1.82;;;;;;;23.51;83.89;98066.39;1546453;91;21651;-62
2023/07/02 09:13:52;;;;;;;5.20;1.80;;;;;;;23.30;84.48;98057.45;1559459;90;21228;-65
2023/07/02 09:16:27;;;;;;;3.90;1.52;;;;;;;23.14;83.80;98069.20;1560184;91;21084;-60
2023/07/02 09:19:08;;;;;;;3.30;1.52;;;;;;;23.20;82.26;98068.42;1560364;90;21144;-60
2023/07/02 09:21:46;;;;;;;8.78;2.22;;;;;;;22.82;82.54;98055.08;1560246;91;21120;-60
2023/07/02 09:24:18;;;;;;;4.60;1.70;;;;;;;22.62;83.20;98062.36;1559699;90;21060;-60
2023/07/02 09:26:53;;;;;;;4.60;1.80;;;;;;;22.88;83.50;98063.62;1560725;90;21104;-60
2023/07/02 09:29:26;;;;;;;4.08;1.70;;;;;;;22.88;82.09;98061.80;1560569;90;21652;-60
2023/07/02 09:31:58;;;;;;;7.87;2.17;;;;;;;22.80;81.68;98072.58;1560991;90;21109;-60
2023/07/02 09:34:30;;;;;;;5.33;2.15;;;;;;;22.69;81.44;98075.75;1565921;90;21091;-61
2023/07/02 09:37:00;;;;;;;4.87;2.02;;;;;;;22.54;79.95;98091.23;1567881;89;21546;-62
2023/07/02 09:39:33;;;;;;;5.12;1.77;;;;;;;21.95;76.93;98084.69;1581760;88;21722;-61
2023/07/02 09:42:09;;;;;;;5.37;1.95;;;;;;;21.61;79.64;98092.72;1664681;84;22546;-61
2023/07/02 09:44:36;;;;;;;6.50;2.20;;;;;;;22.15;83.23;98084.11;1709561;83;21625;-61
2023/07/02 09:47:07;;;;;;;7.60;1.92;;;;;;;24.70;86.87;98080.25;1707249;82;21594;-62
2023/07/02 09:49:38;;;;;;;5.10;2.15;;;;;;;26.67;82.36;98077.60;1733680;81;20992;-61
2023/07/02 09:52:07;;;;;;;4.50;2.00;;;;;;;28.51;79.24;98077.86;1735908;81;21110;-63
2023/07/02 09:54:37;;;;;;;6.87;2.35;;;;;;;29.45;77.83;98076.71;1674213;83;20997;-64
2023/07/02 09:57:08;;;;;;;4.90;1.92;;;;;;;29.63;74.86;98084.70;1733504;81;21016;-62
2023/07/02 09:59:38;;;;;;;8.05;2.33;;;;;;;29.19;73.50;98085.53;1716942;81;21047;-61
2023/07/02 10:02:06;;;;;;;6.20;2.55;;;;;;;28.21;72.97;98085.89;1735802;81;22230;-60
2023/07/02 10:04:47;;;;;;;4.70;1.82;;;;;;;27.07;72.55;98093.38;1734299;81;21004;-63
2023/07/02 10:07:32;;;;;;;4.08;1.92;;;;;;;25.83;71.45;98102.13;1712729;81;21266;-62
2023/07/02 10:09:59;;;;;;;4.35;1.95;;;;;;;24.58;71.43;98096.53;1733889;81;21039;-62
2023/07/02 10:12:30;;;;;;;5.12;2.10;;;;;;;23.63;72.18;98102.11;1721922;79;21134;-63
2023/07/02 10:14:59;;;;;;;5.83;2.00;;;;;;;23.10;71.47;98103.86;1733109;79;21028;-61
2023/07/02 10:17:33;;;;;;;5.97;2.02;;;;;;;23.17;73.50;98117.25;1759392;79;21032;-61
2023/07/02 10:20:13;;;;;;;3.40;1.82;;;;;;;24.17;73.65;98120.08;1797433;78;21080;-61
2023/07/02 10:22:54;;;;;;;4.28;1.92;;;;;;;26.03;73.21;98098.88;1800169;78;21031;-62
2023/07/02 10:25:26;;;;;;;5.22;2.27;;;;;;;27.74;73.02;98096.30;1801700;78;21040;-62
2023/07/02 10:27:53;;;;;;;5.00;1.87;;;;;;;28.69;69.26;98099.30;1803029;78;20968;-63
2023/07/02 10:30:21;;;;;;;9.78;2.10;;;;;;;28.30;68.61;98093.39;1808439;78;20984;-62
2023/07/02 10:32:47;;;;;;;4.22;1.95;;;;;;;27.57;65.51;98098.74;1805011;78;21019;-62
2023/07/02 10:35:19;;;;;;;11.48;2.27;;;;;;;26.33;63.90;98103.18;1804950;78;20993;-61
2023/07/02 10:37:46;;;;;;;5.70;2.20;;;;;;;25.01;63.22;98110.86;1811793;78;21016;-62
2023/07/02 10:40:13;;;;;;;6.83;2.20;;;;;;;23.84;64.89;98115.39;1815824;78;21438;-61
2023/07/02 10:42:51;;;;;;;5.62;2.20;;;;;;;23.33;63.98;98116.98;1816201;78;20973;-62
2023/07/02 10:45:20;;;;;;;4.33;2.15;;;;;;;23.11;64.54;98124.68;1818269;78;21005;-61
2023/07/02 10:47:46;;;;;;;8.08;2.30;;;;;;;22.77;62.99;98133.64;1817172;78;21114;-62
2023/07/02 10:50:23;;;;;;;7.47;2.10;;;;;;;22.58;62.89;98129.45;1816261;78;21067;-64
2023/07/02 10:52:53;;;;;;;7.75;2.17;;;;;;;22.27;63.84;98149.13;1819548;78;22314;-64
2023/07/02 10:55:23;;;;;;;6.12;2.67;;;;;;;22.22;61.90;98132.91;1808074;78;21020;-63
2023/07/02 10:58:06;;;;;;;8.88;2.10;;;;;;;22.17;62.28;98148.55;1814611;78;20978;-62
2023/07/02 11:00:51;;;;;;;8.55;2.15;;;;;;;21.80;61.62;98141.83;1767507;80;21154;-66
2023/07/02 11:03:22;;;;;;;9.15;2.22;;;;;;;21.36;62.51;98158.98;1760782;81;21533;-61
2023/07/02 11:05:50;;;;;;;5.35;2.42;;;;;;;21.01;61.82;98146.67;1764331;81;21004;-59
2023/07/02 11:08:18;;;;;;;5.67;2.62;;;;;;;20.71;62.44;98163.77;1764449;81;21027;-68
2023/07/02 11:10:49;;;;;;;4.28;2.50;;;;;;;20.63;62.62;98154.53;1758142;81;21140;-67
2023/07/02 11:13:17;;;;;;;9.68;2.80;;;;;;;20.95;63.62;98156.16;1760985;81;21072;-62
2023/07/02 11:15:47;;;;;;;5.33;2.33;;;;;;;22.41;65.19;98162.09;1760478;81;21055;-66
2023/07/02 11:18:17;;;;;;;6.58;2.52;;;;;;;24.24;64.27;98153.43;1762269;81;21008;-63
2023/07/02 11:20:46;;;;;;;5.97;2.35;;;;;;;25.85;63.05;98148.17;1760725;81;21058;-64
2023/07/02 11:23:24;;;;;;;4.83;2.37;;;;;;;27.30;62.79;98128.45;1765265;81;21023;-63
2023/07/02 11:26:02;;;;;;;12.43;2.55;;;;;;;27.18;58.63;98134.23;1770810;81;21579;-62
2023/07/02 11:28:34;;;;;;;8.48;2.72;;;;;;;27.24;58.96;98134.69;1726713;81;21009;-62
2023/07/02 11:31:15;;;;;;;;;;;;;;;;;;;;;
2023/07/02 11:33:44;;;;;;;6.65;2.67;;;;;;;25.92;59.57;98144.98;1650408;85;20997;-66
2023/07/02 11:36:08;;;;;;;7.35;2.52;;;;;;;24.92;57.85;98168.15;1665912;84;21623;-61
2023/07/02 11:38:37;;;;;;;8.05;3.05;;;;;;;23.80;58.09;98175.42;1665019;85;21665;-64
2023/07/02 11:41:04;;;;;;;6.92;2.62;;;;;;;22.93;58.89;98176.47;1666647;85;21004;-60
2023/07/02 11:43:32;;;;;;;6.67;2.50;;;;;;;22.81;60.87;98175.33;1661935;85;21024;-60
2023/07/02 11:45:59;;;;;;;6.03;2.55;;;;;;;24.06;61.73;98176.63;1660625;84;21124;-64
2023/07/02 11:48:26;;;;;;;7.17;2.62;;;;;;;25.61;61.15;98173.17;1653410;84;21084;-62